Time;durP1;ratioP1;P1;durP2;ratioP2;P2;SDS_P1;SDS_P2;PMS_P1;PMS_P2;Temp;Humidity;BMP_temperature;BMP_pressure;BME280_temperature;BME280_humidity;BME280_pressure;Samples;Min_cycle;Max_cycle;Signal;HPM_P1;HPM_P2
2022/05/23 00:01:54;;;;;;;3.80;2.22;;;11.20;85.90;;;;;;4978857;28;20042;-75
2022/05/23 00:04:20;;;;;;;3.90;2.00;;;11.20;85.90;;;;;;4981488;28;20826;-73
2022/05/23 00:06:46;;;;;;;6.90;1.98;;;11.10;86.10;;;;;;4969661;28;20051;-73
2022/05/23 00:09:12;;;;;;;6.45;2.35;;;11.10;86.10;;;;;;4978861;28;20035;-76
2022/05/23 00:11:38;;;;;;;6.55;2.28;;;11.10;86.20;;;;;;4974627;28;20118;-73
2022/05/23 00:14:04;;;;;;;6.47;2.15;;;11.10;86.40;;;;;;4974861;28;20544;-73
2022/05/23 00:16:35;;;;;;;3.97;2.17;;;11.20;86.20;;;;;;4979233;28;20031;-73
2022/05/23 00:19:02;;;;;;;6.55;1.98;;;11.30;85.90;;;;;;4957196;28;20166;-79
2022/05/23 00:21:27;;;;;;;4.10;1.88;;;11.20;85.80;;;;;;4976977;28;20536;-75
2022/05/23 00:23:53;;;;;;;8.48;2.28;;;11.20;86.20;;;;;;4955073;28;20183;-74
2022/05/23 00:26:21;;;;;;;4.45;1.75;;;11.20;86.10;;;;;;4976633;28;20050;-73
2022/05/23 00:28:48;;;;;;;4.03;1.85;;;11.30;85.90;;;;;;4975325;28;20018;-73
2022/05/23 00:31:14;;;;;;;6.57;2.30;;;11.20;85.80;;;;;;4968577;28;20149;-74
2022/05/23 00:36:25;;;;;;;6.85;2.45;;;11.10;86.20;;;;;;4979371;28;20046;-73
2022/05/23 00:38:53;;;;;;;5.32;2.03;;;11.20;86.20;;;;;;4980091;28;20134;-73
2022/05/23 00:44:25;;;;;;;3.67;2.00;;;11.00;86.60;;;;;;4972404;28;20081;-74
2022/05/23 00:46:59;;;;;;;6.68;2.10;;;11.00;86.60;;;;;;4972739;28;20039;-74
2022/05/23 00:49:28;;;;;;;4.65;2.33;;;11.00;86.70;;;;;;4977975;28;20045;-73
2022/05/23 00:51:56;;;;;;;4.85;2.20;;;11.00;86.60;;;;;;4969768;28;20053;-74
2022/05/23 00:54:24;;;;;;;4.07;1.92;;;11.00;86.50;;;;;;4976400;28;20038;-76
2022/05/23 00:56:52;;;;;;;7.50;2.08;;;11.00;86.70;;;;;;4973241;28;20434;-73
2022/05/23 00:59:25;;;;;;;6.95;1.95;;;11.00;86.70;;;;;;4966423;28;20030;-73
2022/05/23 01:01:51;;;;;;;6.97;1.88;;;11.10;86.70;;;;;;4972333;28;20030;-73
2022/05/23 01:04:17;;;;;;;3.67;1.95;;;11.10;86.70;;;;;;4954768;28;20042;-73
2022/05/23 01:06:43;;;;;;;4.38;1.92;;;11.20;86.30;;;;;;4979725;28;20042;-74
2022/05/23 01:09:09;;;;;;;5.07;2.22;;;11.30;86.00;;;;;;4971203;28;20027;-73
2022/05/23 01:11:34;;;;;;;4.35;1.77;;;11.40;85.70;;;;;;4974635;28;20053;-73
2022/05/23 01:14:00;;;;;;;7.40;2.10;;;11.40;85.40;;;;;;4973025;28;20478;-73
2022/05/23 01:16:27;;;;;;;4.95;1.85;;;11.50;85.30;;;;;;4970751;28;20042;-74
2022/05/23 01:18:52;;;;;;;5.45;2.20;;;11.50;85.10;;;;;;4973288;28;20038;-75
2022/05/23 01:21:31;;;;;;;6.20;2.00;;;11.50;85.00;;;;;;4970685;28;20426;-73
2022/05/23 01:24:05;;;;;;;5.93;1.83;;;11.50;84.40;;;;;;4968488;28;20027;-73
2022/05/23 01:26:34;;;;;;;4.38;1.83;;;11.50;84.50;;;;;;4976148;28;20042;-74
2022/05/23 01:28:59;;;;;;;6.93;1.80;;;11.50;84.60;;;;;;4966956;28;20481;-73
2022/05/23 01:31:25;;;;;;;4.55;1.70;;;11.50;84.40;;;;;;4955069;28;20031;-74
2022/05/23 01:33:50;;;;;;;3.55;1.70;;;11.40;84.40;;;;;;4984064;28;20033;-73
2022/05/23 01:36:16;;;;;;;2.92;1.35;;;11.30;84.60;;;;;;4977512;28;20047;-73
2022/05/23 01:38:42;;;;;;;4.53;1.95;;;11.20;85.00;;;;;;4977857;28;20185;-75
2022/05/23 01:41:08;;;;;;;2.88;1.70;;;11.20;84.30;;;;;;5001214;28;20030;-73
2022/05/23 01:43:34;;;;;;;6.07;1.77;;;11.20;84.30;;;;;;4995544;28;20436;-74
2022/05/23 01:46:00;;;;;;;6.82;1.42;;;11.20;84.40;;;;;;4996379;28;20065;-73
2022/05/23 01:48:26;;;;;;;4.70;1.75;;;11.20;84.00;;;;;;4972482;28;20470;-73
2022/05/23 01:50:51;;;;;;;3.17;1.83;;;11.10;83.90;;;;;;4995553;28;20092;-73
2022/05/23 01:53:17;;;;;;;4.50;1.70;;;11.10;84.10;;;;;;4997158;28;20034;-74
2022/05/23 01:55:42;;;;;;;3.00;1.77;;;11.10;84.30;;;;;;4998960;28;20038;-73
2022/05/23 01:58:09;;;;;;;4.95;1.70;;;11.00;84.00;;;;;;4992377;28;20061;-73
2022/05/23 02:03:20;;;;;;;2.88;1.58;;;11.00;84.20;;;;;;4992256;28;20381;-74
2022/05/23 02:05:46;;;;;;;2.95;1.58;;;10.90;84.40;;;;;;4996832;28;20054;-73
2022/05/23 02:08:11;;;;;;;5.13;2.03;;;10.80;84.30;;;;;;4990586;28;20030;-73
2022/05/23 02:10:37;;;;;;;4.95;1.88;;;10.90;84.20;;;;;;4990535;28;20042;-73
2022/05/23 02:13:03;;;;;;;4.63;1.80;;;10.80;84.20;;;;;;4989922;28;20037;-73
2022/05/23 02:15:31;;;;;;;3.15;1.65;;;10.80;84.50;;;;;;4988727;28;20042;-74
2022/05/23 02:17:59;;;;;;;4.85;1.67;;;10.80;84.30;;;;;;4983416;28;20428;-75
2022/05/23 02:20:26;;;;;;;6.35;2.17;;;10.90;83.80;;;;;;4970555;28;20033;-74
2022/05/23 02:22:52;;;;;;;9.40;2.10;;;10.90;83.60;;;;;;4979048;28;20767;-74
2022/05/23 02:25:17;;;;;;;4.97;2.03;;;10.80;83.80;;;;;;4985395;28;20049;-73
2022/05/23 02:27:43;;;;;;;3.85;2.00;;;10.80;83.60;;;;;;4985090;28;20041;-76
2022/05/23 02:30:09;;;;;;;5.22;1.52;;;10.70;83.90;;;;;;4983284;28;20037;-77
2022/05/23 02:32:34;;;;;;;4.03;1.33;;;10.80;83.90;;;;;;4996202;28;20042;-74
2022/05/23 02:35:00;;;;;;;3.53;1.58;;;10.70;83.90;;;;;;4972007;28;20116;-77
2022/05/23 02:37:25;;;;;;;3.58;2.03;;;10.70;83.90;;;;;;4985565;28;20061;-76
2022/05/23 02:39:51;;;;;;;3.17;1.60;;;10.60;83.80;;;;;;5004450;28;20433;-73
2022/05/23 02:42:17;;;;;;;6.30;1.88;;;10.60;83.80;;;;;;4981912;28;20025;-73
2022/05/23 02:44:42;;;;;;;4.50;1.70;;;10.60;84.00;;;;;;4973914;28;20034;-73
2022/05/23 02:47:08;;;;;;;3.65;1.70;;;10.60;83.70;;;;;;4990689;28;20137;-73
2022/05/23 02:49:33;;;;;;;3.78;1.75;;;10.50;83.60;;;;;;4995303;28;20061;-73
2022/05/23 02:51:59;;;;;;;3.35;1.80;;;10.60;83.80;;;;;;4979370;28;20034;-75
2022/05/23 02:54:24;;;;;;;3.65;1.70;;;10.50;83.80;;;;;;5000311;28;20038;-73
2022/05/23 02:56:50;;;;;;;3.72;2.03;;;10.40;84.10;;;;;;4993082;28;20034;-73
2022/05/23 02:59:15;;;;;;;6.72;2.15;;;10.50;83.70;;;;;;4998588;28;20047;-73
2022/05/23 03:04:26;;;;;;;5.15;1.60;;;10.50;83.60;;;;;;4990426;28;20051;-74
2022/05/23 03:06:52;;;;;;;4.40;1.98;;;10.60;83.20;;;;;;5001225;28;20523;-76
2022/05/23 03:09:17;;;;;;;4.47;1.70;;;10.50;83.10;;;;;;4971036;28;20062;-73
2022/05/23 03:11:43;;;;;;;5.60;1.60;;;10.50;83.00;;;;;;5000356;28;20037;-73
2022/05/23 03:14:09;;;;;;;4.72;2.00;;;10.50;82.80;;;;;;4988458;28;20038;-73
2022/05/23 03:16:34;;;;;;;3.67;1.17;;;10.50;83.10;;;;;;4972759;28;20470;-74
2022/05/23 03:19:00;;;;;;;4.55;1.88;;;10.60;82.20;;;;;;4974584;28;20086;-76
2022/05/23 03:27:07;;;;;;;3.00;1.30;;;10.50;82.60;;;;;;4990461;28;20041;-73
2022/05/23 03:29:33;;;;;;;3.25;2.00;;;10.40;83.00;;;;;;4993464;28;20038;-73
2022/05/23 03:31:58;;;;;;;3.53;1.60;;;10.40;83.20;;;;;;4986976;28;20501;-74
2022/05/23 03:34:24;;;;;;;3.13;1.63;;;10.50;82.90;;;;;;4969860;28;20048;-73
2022/05/23 03:36:50;;;;;;;4.60;1.98;;;10.50;82.50;;;;;;4987802;28;20476;-73
2022/05/23 03:39:16;;;;;;;3.15;1.40;;;10.50;82.80;;;;;;4972797;28;20050;-73
2022/05/23 03:41:42;;;;;;;4.15;1.95;;;10.50;82.70;;;;;;4997729;28;20034;-77
2022/05/23 03:44:08;;;;;;;4.45;1.40;;;10.50;82.70;;;;;;4979509;28;20492;-73
2022/05/23 03:46:34;;;;;;;3.20;1.88;;;10.40;83.00;;;;;;4989354;28;20094;-73
2022/05/23 03:49:01;;;;;;;4.93;1.55;;;10.50;82.80;;;;;;4989511;28;20030;-74
2022/05/23 03:51:27;;;;;;;3.88;1.60;;;10.50;82.60;;;;;;4988298;28;20133;-74
2022/05/23 03:53:53;;;;;;;3.45;1.60;;;10.60;82.00;;;;;;4979736;28;20105;-74
2022/05/23 03:56:18;;;;;;;3.58;1.40;;;10.50;82.20;;;;;;4989651;28;20121;-74
2022/05/23 03:58:44;;;;;;;4.30;1.95;;;10.60;81.70;;;;;;4988046;28;20037;-74
2022/05/23 04:01:13;;;;;;;2.25;1.48;;;10.60;82.10;;;;;;4991908;28;20466;-74
2022/05/23 04:03:39;;;;;;;3.42;1.70;;;10.60;81.80;;;;;;4995146;28;20049;-74
2022/05/23 04:06:05;;;;;;;4.10;1.80;;;10.70;81.80;;;;;;4971389;28;20042;-74
2022/05/23 04:08:30;;;;;;;2.58;1.50;;;10.70;81.90;;;;;;4991384;28;20066;-74
2022/05/23 04:10:56;;;;;;;3.17;1.55;;;10.80;81.50;;;;;;4993828;28;20050;-74
2022/05/23 04:13:22;;;;;;;3.95;1.42;;;10.70;81.70;;;;;;4995650;28;20039;-75
2022/05/23 04:15:48;;;;;;;2.13;1.40;;;10.80;81.10;;;;;;4993423;28;20081;-74
2022/05/23 04:18:13;;;;;;;4.53;1.40;;;10.90;81.00;;;;;;4983895;28;20058;-71
2022/05/23 04:20:39;;;;;;;3.88;1.33;;;11.00;80.90;;;;;;5005538;28;20089;-71
2022/05/23 04:23:08;;;;;;;5.13;1.45;;;11.10;80.50;;;;;;4992543;28;20138;-71
2022/05/23 04:25:37;;;;;;;3.65;1.50;;;11.20;79.70;;;;;;4998014;28;20500;-71
2022/05/23 04:28:03;;;;;;;1.45;1.00;;;11.30;79.50;;;;;;4981119;28;20072;-72
2022/05/23 04:30:28;;;;;;;5.15;1.27;;;11.30;79.70;;;;;;4999847;28;20078;-72
2022/05/23 04:35:38;;;;;;;3.67;1.60;;;11.40;79.40;;;;;;5006220;28;20084;-72
2022/05/23 04:38:04;;;;;;;3.30;1.35;;;11.50;79.30;;;;;;5003206;28;20058;-72
2022/05/23 04:40:30;;;;;;;2.90;1.40;;;11.50;79.10;;;;;;4996388;28;20034;-72
2022/05/23 04:42:55;;;;;;;2.65;1.65;;;11.60;78.30;;;;;;4991526;28;20030;-72
2022/05/23 04:45:22;;;;;;;2.72;1.20;;;11.70;78.00;;;;;;4989727;28;20084;-72
2022/05/23 04:50:33;;;;;;;3.60;1.45;;;11.90;77.40;;;;;;4992709;28;20102;-72
2022/05/23 04:52:59;;;;;;;2.72;1.15;;;11.90;77.40;;;;;;5003673;28;20034;-72
2022/05/23 04:55:24;;;;;;;5.13;1.77;;;12.00;76.90;;;;;;4998829;28;20109;-72
2022/05/23 04:57:52;;;;;;;2.70;1.40;;;12.00;77.00;;;;;;4998864;28;20053;-72
2022/05/23 05:00:20;;;;;;;2.88;1.50;;;12.10;77.20;;;;;;4988450;28;20386;-72
2022/05/23 05:02:48;;;;;;;2.30;1.30;;;12.20;76.80;;;;;;4988608;28;20027;-72
2022/05/23 05:05:14;;;;;;;2.92;1.50;;;12.20;77.00;;;;;;4989667;28;20038;-72
2022/05/23 05:07:40;;;;;;;2.05;1.30;;;12.30;76.10;;;;;;4986884;28;20041;-72
2022/05/23 05:10:07;;;;;;;5.22;1.48;;;12.50;76.00;;;;;;4992595;28;20133;-72
2022/05/23 05:12:32;;;;;;;2.88;1.58;;;12.60;75.50;;;;;;4986123;28;20049;-71
2022/05/23 05:14:58;;;;;;;5.38;1.70;;;12.80;74.90;;;;;;4977716;28;20038;-71
2022/05/23 05:17:25;;;;;;;3.63;1.45;;;12.90;74.70;;;;;;4985827;28;20113;-71
2022/05/23 05:19:51;;;;;;;4.57;1.58;;;13.10;74.60;;;;;;4996646;28;20139;-74
2022/05/23 05:22:16;;;;;;;2.30;1.23;;;13.30;73.30;;;;;;4997683;28;20137;-74
2022/05/23 05:24:42;;;;;;;5.13;1.35;;;13.40;72.80;;;;;;4997277;28;20516;-74
2022/05/23 05:27:09;;;;;;;3.55;1.40;;;13.60;72.10;;;;;;5002684;28;20034;-74
2022/05/23 05:29:35;;;;;;;2.38;1.35;;;13.60;72.30;;;;;;4987594;28;20517;-74
2022/05/23 05:32:05;;;;;;;4.57;1.40;;;13.60;71.70;;;;;;4989232;28;20027;-74
2022/05/23 05:34:51;;;;;;;4.32;1.38;;;13.60;72.00;;;;;;4995766;28;20181;-74
2022/05/23 05:37:22;;;;;;;2.95;1.02;;;13.70;71.30;;;;;;4984478;28;20026;-74
2022/05/23 05:39:50;;;;;;;3.17;1.25;;;13.80;72.20;;;;;;4987716;28;20042;-74
2022/05/23 05:42:22;;;;;;;4.47;1.25;;;14.00;72.80;;;;;;4962982;28;20030;-74
2022/05/23 05:45:08;;;;;;;4.38;1.33;;;14.20;70.60;;;;;;4992566;28;20033;-72
2022/05/23 05:47:36;;;;;;;2.47;1.25;;;14.40;71.60;;;;;;4994190;28;20420;-73
2022/05/23 05:50:09;;;;;;;5.07;1.20;;;14.50;70.70;;;;;;4993706;28;20030;-73
2022/05/23 05:52:35;;;;;;;1.27;0.93;;;14.40;69.80;;;;;;5003005;28;20036;-73
2022/05/23 05:55:04;;;;;;;3.50;1.20;;;14.40;70.10;;;;;;4989790;28;20056;-73
2022/05/23 05:57:30;;;;;;;5.25;1.55;;;14.20;71.30;;;;;;4985262;28;20038;-75
2022/05/23 05:59:56;;;;;;;2.00;1.10;;;14.30;69.70;;;;;;4992704;28;20381;-75
2022/05/23 06:02:21;;;;;;;3.95;1.40;;;14.40;69.80;;;;;;4988392;28;20038;-74
2022/05/23 06:04:47;;;;;;;5.07;1.30;;;14.50;69.30;;;;;;4985705;28;20042;-74
2022/05/23 06:12:58;;;;;;;3.10;1.50;;;14.80;67.60;;;;;;4995682;28;20113;-75
2022/05/23 06:15:24;;;;;;;3.67;1.33;;;14.90;67.80;;;;;;4991233;28;20094;-75
2022/05/23 06:17:51;;;;;;;4.15;1.20;;;15.00;69.80;;;;;;4988418;28;20058;-74
2022/05/23 06:20:18;;;;;;;3.25;1.10;;;15.10;67.20;;;;;;4994194;28;20026;-73
2022/05/23 06:22:43;;;;;;;4.25;1.00;;;15.30;66.80;;;;;;4986198;28;20034;-73
2022/05/23 06:25:10;;;;;;;2.88;0.80;;;15.50;66.30;;;;;;4994378;28;20046;-72
2022/05/23 06:27:35;;;;;;;2.88;1.08;;;15.70;66.70;;;;;;4989862;28;20050;-74
2022/05/23 06:30:01;;;;;;;5.25;1.70;;;15.90;66.40;;;;;;4971797;28;20026;-74
2022/05/23 06:32:26;;;;;;;3.15;1.10;;;16.00;64.90;;;;;;4983685;28;20041;-76
2022/05/23 06:34:52;;;;;;;2.50;0.88;;;16.20;66.90;;;;;;4984873;28;20035;-76
2022/05/23 06:37:17;;;;;;;2.33;1.02;;;16.50;65.50;;;;;;4992746;28;20536;-76
2022/05/23 06:39:43;;;;;;;3.50;1.10;;;16.60;63.40;;;;;;4994668;28;20044;-76
2022/05/23 06:42:09;;;;;;;2.80;1.10;;;16.70;62.50;;;;;;4966121;28;20058;-77
2022/05/23 06:44:34;;;;;;;1.75;0.70;;;16.90;63.10;;;;;;4986641;28;20037;-76
2022/05/23 06:47:00;;;;;;;2.50;1.27;;;17.00;62.00;;;;;;4987841;28;20038;-76
2022/05/23 06:49:26;;;;;;;3.72;1.10;;;17.50;62.40;;;;;;4989054;28;20026;-76
2022/05/23 06:51:52;;;;;;;3.25;0.98;;;17.70;60.60;;;;;;4995805;28;20049;-76
2022/05/23 06:54:19;;;;;;;2.10;0.80;;;17.80;60.10;;;;;;4993695;28;20034;-76
2022/05/23 06:56:45;;;;;;;4.32;1.27;;;17.90;59.60;;;;;;4989649;28;20034;-76
2022/05/23 06:59:12;;;;;;;1.67;0.90;;;17.90;58.80;;;;;;4970618;28;20062;-76
2022/05/23 07:01:38;;;;;;;2.28;0.77;;;18.30;57.50;;;;;;4984074;28;20521;-76
2022/05/23 07:04:04;;;;;;;1.58;0.68;;;18.30;55.60;;;;;;4999185;28;20109;-76
2022/05/23 07:14:41;;;;;;;2.55;1.00;;;18.60;57.50;;;;;;4990868;28;20096;-75
2022/05/23 07:17:07;;;;;;;3.08;0.88;;;18.70;55.10;;;;;;4980997;28;20469;-75
2022/05/23 07:19:35;;;;;;;4.45;0.90;;;18.60;55.10;;;;;;4996100;28;20042;-74
2022/05/23 07:22:02;;;;;;;2.28;1.00;;;19.00;55.70;;;;;;4989972;28;20433;-75
2022/05/23 07:24:28;;;;;;;2.97;1.08;;;19.00;56.00;;;;;;4975050;28;20056;-75
2022/05/23 07:26:54;;;;;;;3.03;1.08;;;18.90;56.10;;;;;;4993517;28;20444;-75
2022/05/23 07:29:24;;;;;;;3.67;1.23;;;18.50;56.00;;;;;;4991270;28;20064;-75
2022/05/23 07:31:51;;;;;;;3.38;1.10;;;18.50;54.50;;;;;;5000310;28;20358;-70
2022/05/23 07:34:18;;;;;;;3.42;1.00;;;18.90;56.20;;;;;;4992251;28;20063;-72
2022/05/23 07:36:44;;;;;;;3.35;1.00;;;18.90;56.10;;;;;;4985506;28;20050;-73
2022/05/23 07:39:11;;;;;;;5.00;1.10;;;19.00;54.70;;;;;;4990974;28;20058;-73
2022/05/23 07:41:39;;;;;;;2.30;0.82;;;19.30;55.30;;;;;;4978646;28;20041;-74
2022/05/23 07:44:07;;;;;;;4.28;1.27;;;19.60;55.10;;;;;;4978398;28;20027;-72
2022/05/23 07:46:32;;;;;;;4.97;1.10;;;19.70;53.40;;;;;;4988334;28;20030;-73
2022/05/23 07:48:59;;;;;;;3.22;1.10;;;19.60;53.70;;;;;;4989153;28;20038;-73
2022/05/23 07:51:24;;;;;;;3.85;1.52;;;19.70;52.30;;;;;;4993191;28;20508;-73
2022/05/23 08:02:04;;;;;;;3.30;1.10;;;20.20;54.10;;;;;;5005700;28;20045;-73
2022/05/23 08:04:30;;;;;;;3.53;1.30;;;20.20;52.50;;;;;;4996462;28;20034;-73
2022/05/23 08:06:56;;;;;;;4.15;1.20;;;20.20;54.00;;;;;;4990428;28;20034;-73
2022/05/23 08:09:22;;;;;;;3.72;1.15;;;20.00;52.50;;;;;;4997598;28;20053;-73
2022/05/23 08:11:53;;;;;;;2.40;1.08;;;20.20;54.30;;;;;;4995062;28;20026;-73
2022/05/23 08:14:19;;;;;;;2.33;1.25;;;19.90;53.70;;;;;;4999289;28;20030;-73
2022/05/23 08:16:44;;;;;;;4.50;1.50;;;19.90;53.80;;;;;;5000456;28;20402;-72
2022/05/23 08:19:10;;;;;;;1.73;1.00;;;19.80;53.00;;;;;;4996912;28;20034;-73
2022/05/23 08:21:44;;;;;;;4.15;1.40;;;20.00;53.80;;;;;;4995163;28;20048;-73
2022/05/23 08:24:10;;;;;;;2.63;1.00;;;20.10;52.50;;;;;;4999830;28;20049;-72
2022/05/23 08:26:36;;;;;;;5.63;1.17;;;20.30;51.20;;;;;;4995218;28;20031;-73
2022/05/23 08:29:01;;;;;;;2.05;0.88;;;20.50;53.10;;;;;;4996399;28;20046;-73
2022/05/23 08:31:27;;;;;;;4.07;1.27;;;20.90;50.50;;;;;;4995464;28;20086;-73
2022/05/23 08:33:52;;;;;;;2.72;1.10;;;21.00;51.60;;;;;;4994916;28;20034;-73
2022/05/23 08:36:18;;;;;;;4.72;1.40;;;21.30;51.60;;;;;;4996482;28;20153;-73
2022/05/23 08:38:43;;;;;;;4.20;1.48;;;21.50;50.80;;;;;;5001469;28;20050;-73
2022/05/23 08:41:15;;;;;;;3.97;1.33;;;21.70;52.60;;;;;;4975800;28;20409;-73
2022/05/23 08:44:02;;;;;;;4.40;1.30;;;22.00;50.40;;;;;;4978912;28;20034;-73
2022/05/23 08:46:54;;;;;;;3.33;1.00;;;21.60;50.60;;;;;;5004713;28;20033;-73
2022/05/23 08:49:48;;;;;;;4.88;1.15;;;21.80;49.10;;;;;;4991989;28;20053;-73
2022/05/23 08:52:41;;;;;;;3.42;1.40;;;22.10;50.90;;;;;;4983980;28;20026;-73
2022/05/23 08:55:20;;;;;;;3.80;1.42;;;22.00;47.90;;;;;;5002352;28;20033;-74
2022/05/23 08:57:57;;;;;;;3.28;1.50;;;22.10;47.80;;;;;;4994344;28;20632;-73
2022/05/23 09:00:29;;;;;;;3.92;1.55;;;21.50;48.30;;;;;;4985810;28;20090;-73
2022/05/23 09:03:07;;;;;;;3.47;1.27;;;21.50;49.90;;;;;;4988986;28;20034;-73
2022/05/23 09:05:35;;;;;;;2.97;1.25;;;21.30;49.90;;;;;;4992806;28;20465;-73
2022/05/23 09:08:13;;;;;;;2.40;1.27;;;21.20;48.70;;;;;;4974918;28;20057;-73
2022/05/23 09:10:54;;;;;;;4.85;1.40;;;21.50;48.90;;;;;;4992555;28;20086;-73
2022/05/23 09:13:21;;;;;;;4.68;1.25;;;22.00;48.20;;;;;;5001044;28;20089;-75
2022/05/23 09:15:51;;;;;;;5.03;1.23;;;22.00;49.40;;;;;;4984202;28;20350;-74
2022/05/23 09:18:21;;;;;;;4.78;1.25;;;22.50;49.40;;;;;;4975560;28;20470;-73
2022/05/23 09:20:51;;;;;;;3.05;1.17;;;21.90;50.10;;;;;;4997522;28;20034;-73
2022/05/23 09:23:31;;;;;;;2.42;1.08;;;22.50;51.30;;;;;;4996934;28;20129;-72
2022/05/23 09:25:59;;;;;;;4.10;1.23;;;22.50;47.30;;;;;;4990215;28;20039;-71
2022/05/23 09:28:27;;;;;;;3.53;1.25;;;22.50;47.60;;;;;;4997922;28;20038;-76
2022/05/23 09:30:59;;;;;;;2.50;1.10;;;22.40;48.70;;;;;;5002412;28;20034;-75
2022/05/23 09:33:30;;;;;;;3.08;1.35;;;22.00;47.60;;;;;;5005593;28;20376;-76
2022/05/23 09:36:18;;;;;;;3.70;0.95;;;22.60;48.10;;;;;;4994462;28;20433;-75
2022/05/23 09:38:52;;;;;;;2.67;1.08;;;22.40;48.60;;;;;;4998548;28;20109;-78
2022/05/23 09:49:57;;;;;;;4.95;1.13;;;23.00;45.80;;;;;;5002241;28;20079;-80
2022/05/23 09:52:32;;;;;;;4.95;1.30;;;23.00;47.50;;;;;;4992683;28;20034;-81
2022/05/23 09:55:04;;;;;;;2.83;1.10;;;23.40;46.70;;;;;;5005373;28;20049;-80
2022/05/23 09:57:56;;;;;;;3.38;1.33;;;23.40;47.00;;;;;;5003754;28;20061;-81
2022/05/23 10:00:22;;;;;;;2.97;1.33;;;23.30;45.60;;;;;;5000994;28;20098;-79
2022/05/23 10:03:00;;;;;;;3.28;1.30;;;22.90;48.40;;;;;;4995131;28;20110;-79
2022/05/23 10:05:35;;;;;;;3.70;1.50;;;22.70;45.70;;;;;;4999794;28;20038;-79
2022/05/23 10:08:07;;;;;;;7.63;1.42;;;22.30;47.10;;;;;;4995325;28;20065;-79
2022/05/23 10:10:36;;;;;;;3.35;1.23;;;22.50;47.90;;;;;;4983370;28;20038;-78
2022/05/23 10:13:29;;;;;;;5.28;1.40;;;22.30;48.00;;;;;;4991924;28;20035;-80
2022/05/23 10:16:15;;;;;;;6.13;1.50;;;21.60;49.10;;;;;;4991276;28;20022;-76
2022/05/23 10:18:46;;;;;;;3.05;1.30;;;21.90;50.10;;;;;;4991095;28;20053;-80
2022/05/23 10:21:31;;;;;;;3.47;1.30;;;21.50;50.10;;;;;;4992407;28;20145;-72
2022/05/23 10:24:10;;;;;;;6.32;1.80;;;21.30;50.10;;;;;;4996163;28;20034;-79
2022/05/23 10:26:51;;;;;;;3.40;1.38;;;21.40;50.80;;;;;;4975202;28;20038;-78
2022/05/23 10:29:51;;;;;;;2.35;1.10;;;21.40;49.30;;;;;;4993903;28;20042;-80
2022/05/23 10:32:28;;;;;;;5.30;1.77;;;21.40;49.40;;;;;;4997133;28;20034;-79
2022/05/23 10:35:05;;;;;;;3.78;1.30;;;21.20;50.80;;;;;;4999813;28;20041;-79
2022/05/23 10:37:36;;;;;;;5.35;1.60;;;21.30;50.60;;;;;;4994529;28;20492;-79
2022/05/23 10:43:04;;;;;;;3.10;1.48;;;21.00;49.60;;;;;;4986787;28;19920;-79
2022/05/23 10:45:36;;;;;;;1.08;0.93;;;21.50;48.70;;;;;;4979169;28;20034;-78
2022/05/23 10:48:32;;;;;;;2.70;1.25;;;21.60;49.90;;;;;;4978939;28;20027;-80
2022/05/23 10:51:08;;;;;;;4.07;1.40;;;21.90;49.90;;;;;;4980880;28;20035;-79
2022/05/23 10:54:10;;;;;;;3.85;1.38;;;22.40;49.00;;;;;;4973321;28;20374;-79
2022/05/23 10:57:11;;;;;;;3.78;1.40;;;22.50;50.90;;;;;;4974336;28;20039;-79
2022/05/23 10:59:53;;;;;;;3.08;1.40;;;22.50;47.60;;;;;;4979398;28;20026;-79
2022/05/23 11:02:31;;;;;;;4.53;1.42;;;22.90;45.70;;;;;;4974211;28;20117;-79
2022/05/23 11:05:00;;;;;;;3.90;1.55;;;22.50;46.40;;;;;;4971357;28;20023;-79
2022/05/23 11:07:49;;;;;;;3.90;1.67;;;22.90;46.60;;;;;;4973544;28;20367;-80
2022/05/23 11:10:20;;;;;;;2.35;1.33;;;22.80;47.60;;;;;;4985182;28;20038;-80
2022/05/23 11:12:45;;;;;;;;;;;22.90;47.00;;;;;;4983773;28;20034;-80
2022/05/23 11:15:39;;;;;;;4.00;1.60;;;22.90;45.50;;;;;;4979386;28;19917;-80
2022/05/23 11:18:36;;;;;;;2.90;1.02;;;22.90;45.60;;;;;;4966152;28;20027;-78
2022/05/23 11:21:07;;;;;;;2.78;1.27;;;22.40;46.10;;;;;;4967435;28;20138;-73
2022/05/23 11:23:39;;;;;;;4.75;1.50;;;22.80;46.20;;;;;;4965977;28;20110;-74
2022/05/23 11:26:26;;;;;;;3.35;1.52;;;23.20;45.40;;;;;;4959353;28;20039;-75
2022/05/23 11:34:40;;;;;;;5.78;1.30;;;24.00;43.10;;;;;;4965135;28;20046;-74
2022/05/23 11:37:09;;;;;;;;;;;24.00;43.90;;;;;;4971114;28;20554;-75
2022/05/23 11:39:54;;;;;;;2.88;1.40;;;24.70;43.40;;;;;;4989059;28;19910;-75
2022/05/23 11:42:22;;;;;;;3.08;1.40;;;24.00;43.50;;;;;;4980790;28;20063;-74
2022/05/23 11:44:51;;;;;;;5.85;1.35;;;25.10;42.40;;;;;;4990639;28;20403;-73
2022/05/23 11:47:21;;;;;;;3.30;1.02;;;25.30;40.50;;;;;;4995846;28;20042;-73
2022/05/23 11:49:59;;;;;;;3.70;1.02;;;25.60;39.20;;;;;;4987140;28;20113;-73
2022/05/23 11:52:33;;;;;;;3.83;1.60;;;25.70;41.40;;;;;;4983367;28;20027;-74
2022/05/23 11:54:59;;;;;;;3.35;1.15;;;25.80;39.60;;;;;;4978001;28;20054;-75
2022/05/23 11:57:35;;;;;;;2.00;1.27;;;26.00;39.20;;;;;;4976248;28;20382;-76
2022/05/23 12:00:27;;;;;;;3.40;1.33;;;26.00;40.20;;;;;;4976871;28;20047;-76
2022/05/23 12:03:17;;;;;;;2.35;1.25;;;26.00;37.90;;;;;;4989498;28;20105;-77
2022/05/23 12:05:43;;;;;;;4.97;1.10;;;26.30;36.00;;;;;;4990436;28;20026;-77
2022/05/23 12:08:31;;;;;;;2.00;1.23;;;26.40;39.10;;;;;;4986734;28;20041;-77
2022/05/23 12:11:01;;;;;;;2.10;1.05;;;26.40;38.10;;;;;;4983261;28;20116;-79
2022/05/23 12:13:38;;;;;;;3.63;1.50;;;26.20;38.30;;;;;;4987272;28;20026;-78
2022/05/23 12:16:31;;;;;;;3.88;1.50;;;25.40;38.20;;;;;;4999723;28;20090;-79
2022/05/23 12:19:13;;;;;;;3.15;1.40;;;24.70;39.90;;;;;;4966811;28;20066;-79
2022/05/23 12:21:47;;;;;;;3.72;1.30;;;24.90;39.30;;;;;;4981120;28;20050;-78
2022/05/23 12:24:13;;;;;;;4.65;1.60;;;24.40;41.10;;;;;;4988285;28;20018;-78
2022/05/23 12:26:39;;;;;;;3.40;1.20;;;24.50;39.80;;;;;;4989323;28;20038;-76
2022/05/23 12:29:23;;;;;;;3.20;1.00;;;25.10;41.30;;;;;;4992523;28;20046;-75
2022/05/23 12:32:10;;;;;;;3.92;1.42;;;25.00;42.10;;;;;;4992697;28;20034;-74
2022/05/23 12:34:41;;;;;;;5.68;1.50;;;25.10;41.50;;;;;;4993962;28;20033;-77
2022/05/23 12:37:27;;;;;;;4.28;1.40;;;24.60;41.00;;;;;;4993471;28;20026;-73
2022/05/23 12:39:57;;;;;;;3.00;1.48;;;24.80;41.30;;;;;;4987706;28;20042;-73
2022/05/23 12:42:42;;;;;;;4.30;1.60;;;24.70;41.00;;;;;;4988815;28;20401;-74
2022/05/23 12:45:19;;;;;;;6.03;1.40;;;25.20;39.50;;;;;;4998825;28;20276;-75
2022/05/23 12:48:02;;;;;;;2.08;1.00;;;25.00;40.80;;;;;;5002434;28;20376;-75
2022/05/23 12:50:42;;;;;;;4.18;1.50;;;25.30;42.20;;;;;;4987632;28;20035;-74
2022/05/23 12:53:40;;;;;;;2.47;1.35;;;25.30;40.70;;;;;;4985999;28;20066;-73
2022/05/23 12:56:36;;;;;;;3.83;1.02;;;25.20;40.20;;;;;;4994377;28;20449;-74
2022/05/23 12:59:21;;;;;;;5.10;1.35;;;25.70;40.40;;;;;;4992621;28;20034;-74
2022/05/23 13:01:52;;;;;;;2.53;1.30;;;27.00;41.30;;;;;;4991435;28;20026;-74
2022/05/23 13:04:23;;;;;;;4.20;1.30;;;25.50;40.10;;;;;;4991158;28;20029;-74
2022/05/23 13:06:55;;;;;;;5.78;1.48;;;25.80;39.10;;;;;;4985862;28;20034;-75
2022/05/23 13:09:54;;;;;;;5.43;1.08;;;25.60;40.20;;;;;;4983640;28;20023;-76
2022/05/23 13:12:30;;;;;;;2.55;1.20;;;26.40;40.60;;;;;;5009603;28;20093;-78
2022/05/23 13:14:58;;;;;;;21.33;10.40;;;25.50;40.90;;;;;;4997588;28;20102;-78
2022/05/23 13:17:35;;;;;;;8.90;2.50;;;25.70;41.80;;;;;;5002834;28;20055;-80
2022/05/23 13:22:46;;;;;;;3.80;1.75;;;27.40;38.30;;;;;;5005088;28;20029;-80
2022/05/23 13:25:12;;;;;;;2.63;1.60;;;27.30;38.00;;;;;;5006523;28;20050;-80
2022/05/23 13:27:45;;;;;;;2.50;1.20;;;27.60;38.10;;;;;;4980030;28;20023;-80
2022/05/23 13:30:17;;;;;;;5.25;1.35;;;27.80;37.10;;;;;;5009789;28;20053;-80
2022/05/23 13:32:44;;;;;;;3.40;1.08;;;27.50;36.60;;;;;;5008714;28;20033;-79
2022/05/23 13:35:19;;;;;;;2.58;1.10;;;27.20;36.90;;;;;;5001963;28;20022;-80
2022/05/23 13:37:45;;;;;;;3.58;1.10;;;27.90;37.60;;;;;;5000754;28;20061;-79
2022/05/23 13:40:24;;;;;;;7.10;1.42;;;27.40;36.90;;;;;;4981108;28;20027;-81
2022/05/23 13:42:49;;;;;;;5.03;1.50;;;27.30;38.40;;;;;;4981397;28;20086;-80
2022/05/23 13:45:24;;;;;;;3.53;1.13;;;28.00;35.70;;;;;;4984073;28;20069;-81
2022/05/23 13:47:57;;;;;;;6.55;1.27;;;28.20;35.10;;;;;;4977525;28;20034;-80
2022/05/23 13:50:32;;;;;;;2.70;1.00;;;28.00;34.30;;;;;;4967199;28;20027;-80
2022/05/23 13:53:06;;;;;;;2.70;1.10;;;28.10;34.70;;;;;;4980008;28;20027;-81
2022/05/23 13:55:38;;;;;;;2.85;1.10;;;28.20;34.70;;;;;;4988695;28;20426;-80
2022/05/23 13:58:13;;;;;;;1.92;1.00;;;28.20;35.40;;;;;;4987255;28;20523;-81
2022/05/23 14:00:43;;;;;;;2.75;1.02;;;28.50;36.00;;;;;;4981062;28;20022;-77
2022/05/23 14:03:25;;;;;;;2.95;1.00;;;27.80;35.00;;;;;;4966457;28;20062;-77
2022/05/23 14:05:53;;;;;;;1.52;0.85;;;28.40;34.80;;;;;;4974423;28;20069;-80
2022/05/23 14:08:36;;;;;;;4.65;1.10;;;27.90;35.10;;;;;;4969592;28;21297;-78
2022/05/23 14:11:21;;;;;;;2.90;0.90;;;27.70;35.60;;;;;;4973325;28;20062;-78